Weather at Denver International Airport

Public forecast

Using degrees Fahrenheit for public forecast. Weather courtesy of forecast.io.

Current aviation weather report (METAR) for Denver International Airport

Retrieved 2022/05/21 22:53 UTC (2 hours ago):

KDEN 212253Z 00000KT 10SM BKN050 BKN220 09/M03 A3023 RMK AO2 SLP230 T00891028

Aviation forecast (TAF) for Denver International Airport

Retrieved 2022-05-22 00:42 UTC (0 seconds ago):

TAF KDEN 212339Z 2200/2306 VRB06KT P6SM SCT050 SCT120 BKN220 FM220300 20010KT P6SM FEW060 SCT120 BKN220 FM221400 18014KT P6SM SCT060 BKN120 FM221900 17018G25KT P6SM BKN060 OVC120 FM222200 18014G22KT P6SM BKN060 OVC120 FM230300 20012KT P6SM VCSH OVC060